createdAt,value
2024-03-19T04:46:28.000Z,21.10
2024-03-19T04:48:56.086Z,21.10
2024-03-19T04:51:29.201Z,21.12
2024-03-19T04:53:56.813Z,21.12
2024-03-19T04:56:25.777Z,21.13
2024-03-19T04:58:53.605Z,21.13
2024-03-19T05:01:21.155Z,21.14
2024-03-19T05:03:51.161Z,21.16
2024-03-19T05:06:18.821Z,21.19
2024-03-19T05:08:48.664Z,21.19
2024-03-19T05:11:16.264Z,21.19
2024-03-19T05:13:43.925Z,21.18
2024-03-19T05:16:12.852Z,21.17
2024-03-19T05:18:40.411Z,21.18
2024-03-19T05:21:08.120Z,21.20
2024-03-19T05:23:36.968Z,21.21
2024-03-19T05:26:08.149Z,21.22
2024-03-19T05:28:36.959Z,21.21
2024-03-19T05:31:22.450Z,21.21
2024-03-19T05:33:55.867Z,21.21
2024-03-19T05:36:27.019Z,21.21
2024-03-19T05:38:54.703Z,21.23
2024-03-19T05:41:24.497Z,21.23
2024-03-19T05:43:54.128Z,21.24
2024-03-19T05:46:25.638Z,21.26
2024-03-19T05:48:53.432Z,21.27
2024-03-19T05:51:23.651Z,21.28
2024-03-19T05:53:51.235Z,21.31
2024-03-19T05:56:19.116Z,21.32
2024-03-19T05:58:47.965Z,21.33
2024-03-19T06:01:15.582Z,21.35
2024-03-19T06:03:43.236Z,21.35
2024-03-19T06:06:11.507Z,21.36
2024-03-19T06:08:40.344Z,21.35
2024-03-19T06:11:10.198Z,21.36
2024-03-19T06:13:37.956Z,21.38
2024-03-19T06:16:06.349Z,21.37
2024-03-19T06:18:34.847Z,21.38
2024-03-19T06:21:02.464Z,21.40
2024-03-19T06:23:32.704Z,21.42
2024-03-19T06:26:00.244Z,21.43
2024-03-19T06:28:27.961Z,21.45
2024-03-19T06:30:57.349Z,21.46
2024-03-19T06:33:24.903Z,21.48
2024-03-19T06:35:54.933Z,21.50
2024-03-19T06:38:22.643Z,21.51
2024-03-19T06:40:50.423Z,21.51
2024-03-19T06:43:19.348Z,21.52
2024-03-19T06:45:48.142Z,21.54
2024-03-19T06:48:17.184Z,21.53
2024-03-19T06:50:45.228Z,21.51
2024-03-19T06:53:16.665Z,21.50
2024-03-19T06:55:44.361Z,21.52
2024-03-19T06:58:14.225Z,21.53
2024-03-19T07:00:41.884Z,21.53
2024-03-19T07:03:14.272Z,21.52
2024-03-19T07:05:48.204Z,21.51
2024-03-19T07:08:21.683Z,21.52
2024-03-19T07:10:51.709Z,21.53
2024-03-19T07:13:19.916Z,21.51
2024-03-19T07:15:53.767Z,21.53
2024-03-19T07:18:21.583Z,21.55
2024-03-19T07:20:52.719Z,21.57
2024-03-19T07:23:20.563Z,21.60
2024-03-19T07:25:49.493Z,21.62
2024-03-19T07:28:17.331Z,21.65
2024-03-19T07:30:47.330Z,21.66
2024-03-19T07:33:15.423Z,21.68
2024-03-19T07:35:46.364Z,21.69
2024-03-19T07:38:16.860Z,21.69
2024-03-19T07:40:54.002Z,21.67
2024-03-19T07:43:24.724Z,21.67
2024-03-19T07:45:58.050Z,21.68
2024-03-19T07:48:27.249Z,21.71
2024-03-19T07:50:57.577Z,21.72
2024-03-19T07:53:28.437Z,21.70
2024-03-19T07:55:56.448Z,21.68
2024-03-19T07:58:25.440Z,21.69
2024-03-19T08:00:53.237Z,21.72
2024-03-19T08:03:22.358Z,21.74
2024-03-19T08:06:02.369Z,21.76
2024-03-19T08:08:32.474Z,21.78
2024-03-19T08:11:02.908Z,21.79
2024-03-19T08:13:32.336Z,21.81
2024-03-19T08:16:00.731Z,21.83
2024-03-19T08:18:29.908Z,21.86
2024-03-19T08:20:57.634Z,21.82
2024-03-19T08:23:25.300Z,21.77
2024-03-19T08:25:55.495Z,21.78
2024-03-19T08:28:25.058Z,21.80
2024-03-19T08:30:54.058Z,21.81
2024-03-19T08:33:22.845Z,21.83
2024-03-19T08:35:56.960Z,21.86
2024-03-19T08:38:29.696Z,21.89
2024-03-19T08:40:58.327Z,21.91
2024-03-19T08:43:29.001Z,21.93
2024-03-19T08:45:59.902Z,21.94
2024-03-19T08:48:29.107Z,21.95
2024-03-19T08:50:58.648Z,21.95
2024-03-19T08:53:28.064Z,21.96
2024-03-19T08:55:57.260Z,21.99
2024-03-19T08:58:26.379Z,22.01
2024-03-19T09:00:54.156Z,22.01
2024-03-19T09:03:21.823Z,22.02
2024-03-19T09:05:58.001Z,22.03
2024-03-19T09:08:28.376Z,22.05
2024-03-19T09:10:56.666Z,22.09
2024-03-19T09:13:25.639Z,22.13
2024-03-19T09:15:53.675Z,22.16
2024-03-19T09:18:25.410Z,22.14
2024-03-19T09:20:57.951Z,22.11
2024-03-19T09:23:27.184Z,22.13
2024-03-19T09:26:07.787Z,22.17
2024-03-19T09:28:36.156Z,22.20
2024-03-19T09:31:05.857Z,22.17
2024-03-19T09:33:34.434Z,22.19
2024-03-19T09:36:03.581Z,22.22
2024-03-19T09:38:31.555Z,22.25
2024-03-19T09:41:04.359Z,22.27
2024-03-19T09:43:36.358Z,22.29
2024-03-19T09:46:11.566Z,22.33
2024-03-19T09:48:47.481Z,22.38
2024-03-19T09:51:23.309Z,22.42
2024-03-19T09:53:54.469Z,22.45
2024-03-19T09:56:25.841Z,22.47
2024-03-19T09:58:57.078Z,22.44
2024-03-19T10:01:26.439Z,22.41
2024-03-19T10:03:55.422Z,22.42
2024-03-19T10:06:24.456Z,22.41
2024-03-19T10:08:52.307Z,22.43
2024-03-19T10:11:24.671Z,22.45
2024-03-19T10:13:53.118Z,22.47
2024-03-19T10:16:23.127Z,22.48
2024-03-19T10:18:52.713Z,22.50
2024-03-19T10:21:24.126Z,22.52
2024-03-19T10:23:52.651Z,22.56
2024-03-19T10:26:23.019Z,22.58
2024-03-19T10:28:54.857Z,22.59
2024-03-19T10:31:24.611Z,22.62
2024-03-19T10:34:02.917Z,22.66
2024-03-19T10:36:35.808Z,22.68
2024-03-19T10:39:09.013Z,22.68
2024-03-19T10:41:38.116Z,22.69
2024-03-19T10:44:13.443Z,22.70
2024-03-19T10:46:43.493Z,22.72
2024-03-19T10:49:24.890Z,22.73
2024-03-19T10:52:09.998Z,22.70
2024-03-19T10:54:44.585Z,22.69
2024-03-19T10:57:18.999Z,22.67
2024-03-19T10:59:48.820Z,22.69
2024-03-19T11:02:21.280Z,22.71
2024-03-19T11:04:58.280Z,22.70
2024-03-19T11:07:28.447Z,22.67
2024-03-19T11:09:57.038Z,22.63
2024-03-19T11:12:25.963Z,22.59
2024-03-19T11:14:58.152Z,22.58
2024-03-19T11:17:30.494Z,22.58
2024-03-19T11:19:58.914Z,22.59
2024-03-19T11:22:27.927Z,22.58
2024-03-19T11:24:57.196Z,22.56
2024-03-19T11:27:34.470Z,22.54
2024-03-19T11:30:13.447Z,22.52
2024-03-19T11:32:42.598Z,22.53
2024-03-19T11:35:27.231Z,22.54
2024-03-19T11:37:55.546Z,22.57
2024-03-19T11:40:25.819Z,22.58
2024-03-19T11:42:55.101Z,22.60
2024-03-19T11:45:23.261Z,22.63
2024-03-19T11:47:53.312Z,22.66
2024-03-19T11:50:21.428Z,22.66
2024-03-19T11:52:49.808Z,22.66
2024-03-19T11:55:22.118Z,22.67
2024-03-19T11:57:52.249Z,22.67
2024-03-19T12:00:22.280Z,22.68
2024-03-19T12:02:51.278Z,22.68
2024-03-19T12:05:22.933Z,22.63
2024-03-19T12:07:52.934Z,22.64
2024-03-19T12:10:24.329Z,22.65
2024-03-19T12:12:53.705Z,22.68
2024-03-19T12:15:25.139Z,22.70
2024-03-19T12:17:54.967Z,22.71
2024-03-19T12:20:24.043Z,22.73
2024-03-19T12:22:54.031Z,22.73
2024-03-19T12:25:25.148Z,22.73
2024-03-19T12:27:52.963Z,22.73
2024-03-19T12:30:23.101Z,22.70
2024-03-19T12:33:12.006Z,22.68
2024-03-19T12:35:41.566Z,22.70
2024-03-19T12:38:12.812Z,22.71
2024-03-19T12:40:41.952Z,22.72
2024-03-19T12:43:19.573Z,22.73
2024-03-19T12:45:48.445Z,22.76
2024-03-19T12:48:17.005Z,22.78
2024-03-19T12:50:47.058Z,22.78
2024-03-19T12:53:15.569Z,22.76
2024-03-19T12:55:47.682Z,22.68
2024-03-19T12:58:15.511Z,22.64
2024-03-19T13:00:44.634Z,22.63
2024-03-19T13:03:12.313Z,22.66
2024-03-19T13:05:40.009Z,22.69
2024-03-19T13:08:09.253Z,22.71
2024-03-19T13:10:37.513Z,22.74
2024-03-19T13:13:07.850Z,22.77
2024-03-19T13:15:36.130Z,22.79
2024-03-19T13:18:06.491Z,22.80
2024-03-19T13:20:34.841Z,22.80
2024-03-19T13:23:08.563Z,22.80
2024-03-19T13:25:37.909Z,22.79
2024-03-19T13:28:08.620Z,22.77
2024-03-19T13:30:36.331Z,22.71
2024-03-19T13:33:06.650Z,22.70
2024-03-19T13:35:34.579Z,22.68
2024-03-19T13:38:04.590Z,22.70
2024-03-19T13:40:34.166Z,22.72
2024-03-19T13:43:03.360Z,22.72
2024-03-19T13:45:31.078Z,22.74
2024-03-19T13:48:00.708Z,22.76
2024-03-19T13:50:32.859Z,22.76
2024-03-19T13:53:04.059Z,22.77
2024-03-19T13:55:39.256Z,22.76
2024-03-19T13:58:15.585Z,22.79
2024-03-19T14:00:48.936Z,22.78
2024-03-19T14:03:23.935Z,22.75
2024-03-19T14:06:03.293Z,22.78
2024-03-19T14:08:36.597Z,22.79
2024-03-19T14:11:06.106Z,22.83
2024-03-19T14:13:35.210Z,22.86
2024-03-19T14:16:03.108Z,22.86
2024-03-19T14:18:31.080Z,22.84
2024-03-19T14:21:00.089Z,22.82
2024-03-19T14:23:27.965Z,22.82
2024-03-19T14:25:55.910Z,22.83
2024-03-19T14:28:25.062Z,22.81
2024-03-19T14:30:56.705Z,22.80
2024-03-19T14:33:26.350Z,22.78
2024-03-19T14:35:54.276Z,22.77
2024-03-19T14:38:25.298Z,22.78
2024-03-19T14:40:54.056Z,22.78
2024-03-19T14:43:23.977Z,22.79
2024-03-19T14:45:52.022Z,22.81
2024-03-19T14:48:22.707Z,22.82
2024-03-19T14:50:50.957Z,22.82
2024-03-19T14:53:22.469Z,22.83
2024-03-19T14:55:50.489Z,22.85
2024-03-19T14:58:20.800Z,22.86
2024-03-19T15:00:52.165Z,22.86
2024-03-19T15:03:28.303Z,22.88
2024-03-19T15:05:58.818Z,22.90
2024-03-19T15:08:28.853Z,22.92
2024-03-19T15:11:02.824Z,22.95
2024-03-19T15:13:32.093Z,22.94
2024-03-19T15:16:07.313Z,22.91
2024-03-19T15:18:39.208Z,22.91
2024-03-19T15:21:18.676Z,22.92
2024-03-19T15:24:00.861Z,22.93
2024-03-19T15:26:37.758Z,22.94
2024-03-19T15:29:10.557Z,22.97
2024-03-19T15:31:41.428Z,22.97
2024-03-19T15:34:10.506Z,22.99
2024-03-19T15:36:39.063Z,23.00
2024-03-19T15:39:09.312Z,23.00
2024-03-19T15:41:37.587Z,23.00
2024-03-19T15:44:07.646Z,23.01
2024-03-19T15:46:35.621Z,23.02
2024-03-19T15:49:05.805Z,23.02
2024-03-19T15:51:33.672Z,22.96
2024-03-19T15:54:02.277Z,22.86
2024-03-19T15:56:31.896Z,22.78
2024-03-19T15:59:02.006Z,22.75
2024-03-19T16:01:34.984Z,22.74
2024-03-19T16:04:08.390Z,22.72
2024-03-19T16:06:36.884Z,22.72
2024-03-19T16:09:10.976Z,22.69
2024-03-19T16:11:47.613Z,22.58
2024-03-19T16:14:18.719Z,22.52
2024-03-19T16:16:48.299Z,22.51
2024-03-19T16:19:17.072Z,22.52
2024-03-19T16:21:50.362Z,22.53
2024-03-19T16:24:19.013Z,22.52
2024-03-19T16:26:48.798Z,22.50
2024-03-19T16:29:17.061Z,22.47
2024-03-19T16:31:48.490Z,22.45
2024-03-19T16:34:22.188Z,22.42
2024-03-19T16:36:52.311Z,22.40
2024-03-19T16:39:21.270Z,22.37
2024-03-19T16:41:51.464Z,22.32
2024-03-19T16:44:20.101Z,22.26
2024-03-19T16:46:53.752Z,22.20
2024-03-19T16:49:28.598Z,22.15
2024-03-19T16:51:57.204Z,22.13
2024-03-19T16:54:26.883Z,22.11
2024-03-19T16:56:57.626Z,22.10
2024-03-19T16:59:28.220Z,22.10
2024-03-19T17:01:57.390Z,22.07
2024-03-19T17:04:28.786Z,21.95
2024-03-19T17:06:57.552Z,21.88
2024-03-19T17:09:27.814Z,21.89
2024-03-19T17:11:55.591Z,21.90
2024-03-19T17:14:25.826Z,21.90
2024-03-19T17:16:53.655Z,21.87
2024-03-19T17:19:21.550Z,21.83
2024-03-19T17:21:52.567Z,21.73
2024-03-19T17:24:21.397Z,21.73
2024-03-19T17:26:50.317Z,21.82
2024-03-19T17:29:18.938Z,21.90
2024-03-19T17:31:49.202Z,21.99
2024-03-19T17:34:19.749Z,22.06
2024-03-19T17:36:49.694Z,22.14
2024-03-19T17:39:18.112Z,22.20
2024-03-19T17:41:47.315Z,22.26
2024-03-19T17:44:15.673Z,22.31
2024-03-19T17:46:46.021Z,22.37
2024-03-19T17:49:17.835Z,22.42
2024-03-19T17:51:46.486Z,22.47
2024-03-19T17:54:15.101Z,22.47
2024-03-19T17:56:51.276Z,22.49
2024-03-19T17:59:21.422Z,22.51
2024-03-19T18:01:50.461Z,22.53
2024-03-19T18:04:19.800Z,22.56
2024-03-19T18:06:47.638Z,22.59
2024-03-19T18:09:18.822Z,22.61
2024-03-19T18:11:48.021Z,22.61
2024-03-19T18:14:17.120Z,22.61
2024-03-19T18:16:50.211Z,22.59
2024-03-19T18:19:27.725Z,22.55
2024-03-19T18:21:56.974Z,22.55
2024-03-19T18:24:28.523Z,22.58
2024-03-19T18:26:57.216Z,22.60
2024-03-19T18:29:26.656Z,22.63
2024-03-19T18:31:56.228Z,22.65
2024-03-19T18:34:29.691Z,22.63
2024-03-19T18:36:58.960Z,22.62
2024-03-19T18:39:28.625Z,22.60
2024-03-19T18:44:53.123Z,22.52
2024-03-19T18:47:20.988Z,22.50
2024-03-19T18:49:49.587Z,22.41
2024-03-19T18:52:19.103Z,22.29
2024-03-19T18:54:46.949Z,22.13
2024-03-19T18:57:18.789Z,22.02
2024-03-19T18:59:46.883Z,21.96
2024-03-19T19:02:16.098Z,21.89
2024-03-19T19:04:44.091Z,21.77
2024-03-19T19:07:11.837Z,21.68
2024-03-19T19:09:41.010Z,21.54
2024-03-19T19:12:09.390Z,21.43
2024-03-19T19:14:39.407Z,21.34
2024-03-19T19:17:08.003Z,21.27
2024-03-19T19:19:38.112Z,21.37
2024-03-19T19:22:06.514Z,21.50
2024-03-19T19:24:38.070Z,21.63
2024-03-19T19:27:06.321Z,21.76
2024-03-19T19:29:35.314Z,21.86
2024-03-19T19:32:03.284Z,21.97
2024-03-19T19:34:32.417Z,22.07
2024-03-19T19:37:02.524Z,22.17
2024-03-19T19:39:32.470Z,22.26
2024-03-19T19:42:02.687Z,22.34
2024-03-19T19:44:33.239Z,22.41
2024-03-19T19:47:04.360Z,22.45
2024-03-19T19:49:35.259Z,22.51
2024-03-19T19:52:04.822Z,22.57
2024-03-19T19:54:32.543Z,22.62
2024-03-19T19:57:01.129Z,22.67
2024-03-19T19:59:29.093Z,22.69
2024-03-19T20:01:59.309Z,22.72
2024-03-19T20:04:27.173Z,22.73
2024-03-19T20:06:57.079Z,22.75
2024-03-19T20:09:24.682Z,22.77
2024-03-19T20:11:52.310Z,22.78
2024-03-19T20:14:20.580Z,22.79
2024-03-19T20:16:48.656Z,22.82
2024-03-19T20:19:17.542Z,22.87
2024-03-19T20:21:46.948Z,22.90
2024-03-19T20:24:16.272Z,22.94
2024-03-19T20:26:45.338Z,22.98
2024-03-19T20:29:14.642Z,23.02
2024-03-19T20:31:43.842Z,23.05
2024-03-19T20:34:12.469Z,23.07
2024-03-19T20:36:42.640Z,23.09
2024-03-19T20:39:10.921Z,23.13
2024-03-19T20:41:42.415Z,23.16
2024-03-19T20:44:11.983Z,23.18
2024-03-19T20:46:41.792Z,23.21
2024-03-19T20:49:09.495Z,23.23
2024-03-19T20:51:39.370Z,23.24
2024-03-19T20:54:07.447Z,23.24
2024-03-19T20:56:37.884Z,23.26
2024-03-19T20:59:09.023Z,23.27
2024-03-19T21:01:38.121Z,23.28
2024-03-19T21:04:05.949Z,23.31
2024-03-19T21:06:33.549Z,23.32
2024-03-19T21:09:03.150Z,23.32
2024-03-19T21:11:31.030Z,23.33
2024-03-19T21:14:00.008Z,23.35
2024-03-19T21:16:29.772Z,23.36
2024-03-19T21:18:58.916Z,23.37
2024-03-19T21:21:26.791Z,23.38
2024-03-19T21:23:57.618Z,23.40
2024-03-19T21:26:25.385Z,23.41
2024-03-19T21:28:54.386Z,23.42
2024-03-19T21:31:23.779Z,23.43
2024-03-19T21:33:52.675Z,23.45
2024-03-19T21:36:21.457Z,23.46
2024-03-19T21:38:51.681Z,23.47
2024-03-19T21:41:19.347Z,23.49
2024-03-19T21:43:49.462Z,23.49
2024-03-19T21:46:17.127Z,23.49
2024-03-19T21:48:45.112Z,23.48
2024-03-19T21:51:14.045Z,23.48
2024-03-19T21:53:42.057Z,23.50
2024-03-19T21:56:09.719Z,23.51
2024-03-19T21:58:38.610Z,23.53
2024-03-19T22:01:07.808Z,23.54
2024-03-19T22:03:39.776Z,23.55
2024-03-19T22:06:07.538Z,23.56
2024-03-19T22:08:36.534Z,23.57
2024-03-19T22:11:04.703Z,23.56
2024-03-19T22:13:32.364Z,23.55
2024-03-19T22:16:01.359Z,23.54
2024-03-19T22:18:29.128Z,23.53
2024-03-19T22:20:56.901Z,23.52
2024-03-19T22:23:25.795Z,23.51
2024-03-19T22:25:53.546Z,23.50
2024-03-19T22:28:21.208Z,23.51
2024-03-19T22:30:50.203Z,23.50
2024-03-19T22:33:17.991Z,23.51
2024-03-19T22:35:45.737Z,23.52
2024-03-19T22:38:14.818Z,23.53
2024-03-19T22:40:43.106Z,23.54
2024-03-19T22:43:13.030Z,23.55
2024-03-19T22:45:43.852Z,23.56
2024-03-19T22:48:12.954Z,23.57
2024-03-19T22:50:44.401Z,23.58
2024-03-19T22:53:13.600Z,23.60
2024-03-19T22:55:41.265Z,23.59
2024-03-19T22:58:08.928Z,23.61
2024-03-19T23:00:39.764Z,23.62
2024-03-19T23:03:07.529Z,23.64
2024-03-19T23:05:36.522Z,23.66
2024-03-19T23:08:04.595Z,23.67
2024-03-19T23:10:34.505Z,23.69
2024-03-19T23:13:02.178Z,23.71
2024-03-19T23:15:29.940Z,23.72
2024-03-19T23:17:59.072Z,23.74
2024-03-19T23:20:27.003Z,23.75
2024-03-19T23:22:55.075Z,23.77
2024-03-19T23:25:24.176Z,23.78
2024-03-19T23:27:53.268Z,23.80
2024-03-19T23:30:23.632Z,23.81
2024-03-19T23:32:51.454Z,23.82
2024-03-19T23:35:20.756Z,23.82
2024-03-19T23:37:48.626Z,23.83
2024-03-19T23:40:20.381Z,23.83
2024-03-19T23:42:48.058Z,23.84
2024-03-19T23:45:17.336Z,23.85
2024-03-19T23:47:44.894Z,23.85
2024-03-19T23:50:13.386Z,23.86
2024-03-19T23:52:41.455Z,23.87
2024-03-19T23:55:09.943Z,23.88
2024-03-19T23:57:39.954Z,23.88
